createdAt,value
2017-10-13T00:00:57.481Z,0.00
2017-10-13T00:01:57.462Z,0.00
2017-10-13T00:02:57.439Z,0.00
2017-10-13T00:03:57.430Z,0.00
2017-10-13T00:04:57.389Z,0.00
2017-10-13T00:05:57.380Z,0.00
2017-10-13T00:06:57.345Z,0.00
2017-10-13T00:07:57.332Z,0.00
2017-10-13T00:08:57.315Z,0.00
2017-10-13T00:09:57.285Z,0.00
2017-10-13T00:10:57.272Z,0.00
2017-10-13T00:11:57.248Z,0.00
2017-10-13T00:12:57.230Z,0.00
2017-10-13T00:13:57.200Z,0.00
2017-10-13T00:14:57.179Z,0.00
2017-10-13T00:15:57.157Z,0.00
2017-10-13T00:16:57.141Z,0.00
2017-10-13T00:17:57.112Z,0.00
2017-10-13T00:18:57.100Z,0.00
2017-10-13T00:19:57.069Z,0.00
2017-10-13T00:20:57.047Z,0.00
2017-10-13T00:21:57.040Z,0.00
2017-10-13T00:22:57.002Z,0.00
2017-10-13T00:23:56.984Z,0.00
2017-10-13T00:24:56.963Z,0.00
2017-10-13T00:25:56.940Z,0.00
2017-10-13T00:26:56.923Z,0.00
2017-10-13T00:27:56.894Z,0.00
2017-10-13T00:28:56.875Z,0.00
2017-10-13T00:29:56.854Z,0.00
2017-10-13T00:30:56.837Z,0.00
2017-10-13T00:31:56.801Z,0.00
2017-10-13T00:32:56.789Z,0.00
2017-10-13T00:33:56.765Z,0.00
2017-10-13T00:34:56.740Z,0.00
2017-10-13T00:35:56.726Z,0.00
2017-10-13T00:36:56.695Z,0.00
2017-10-13T00:37:56.692Z,0.00
2017-10-13T00:38:56.657Z,0.00
2017-10-13T00:39:56.640Z,0.00
2017-10-13T00:40:56.621Z,0.00
2017-10-13T00:41:56.589Z,0.00
2017-10-13T00:42:56.578Z,0.00
2017-10-13T00:43:56.561Z,0.00
2017-10-13T00:44:56.528Z,0.00
2017-10-13T00:45:56.508Z,0.00
2017-10-13T00:46:56.489Z,0.00
2017-10-13T00:47:56.468Z,0.00
2017-10-13T00:48:56.460Z,0.00
2017-10-13T00:49:56.417Z,0.00
2017-10-13T00:50:56.398Z,0.00
2017-10-13T00:51:56.388Z,0.00
2017-10-13T00:52:56.353Z,0.00
2017-10-13T00:53:56.332Z,0.00
2017-10-13T00:54:56.318Z,0.00
2017-10-13T00:55:56.298Z,0.00
2017-10-13T00:56:56.262Z,0.00
2017-10-13T00:57:56.247Z,0.00
2017-10-13T00:58:56.224Z,0.00
2017-10-13T00:59:56.198Z,0.00
2017-10-13T01:00:56.186Z,0.00
2017-10-13T01:01:56.171Z,0.00
2017-10-13T01:02:56.133Z,0.00
2017-10-13T01:03:56.114Z,0.00
2017-10-13T01:04:56.107Z,0.00
2017-10-13T01:05:56.073Z,0.00
2017-10-13T01:06:56.060Z,0.00
2017-10-13T01:07:56.031Z,0.00
2017-10-13T01:08:56.015Z,0.00
2017-10-13T01:09:55.984Z,0.00
2017-10-13T01:10:55.966Z,0.00
2017-10-13T01:11:55.966Z,0.00
2017-10-13T01:12:55.926Z,0.00
2017-10-13T01:13:55.904Z,0.00
2017-10-13T01:14:55.892Z,0.00
2017-10-13T01:15:55.862Z,0.00
2017-10-13T01:16:55.839Z,0.00
2017-10-13T01:17:55.824Z,0.00
2017-10-13T01:18:55.799Z,0.00
2017-10-13T01:19:55.773Z,0.00
2017-10-13T01:20:55.763Z,0.00
2017-10-13T01:21:55.739Z,0.00
2017-10-13T01:22:55.713Z,0.00
2017-10-13T01:23:55.684Z,0.00
2017-10-13T01:24:55.668Z,0.00
2017-10-13T01:25:55.661Z,0.00
2017-10-13T01:26:55.624Z,0.00
2017-10-13T01:27:55.609Z,0.00
2017-10-13T01:28:55.574Z,0.00
2017-10-13T01:29:55.554Z,0.00
2017-10-13T01:30:55.533Z,0.00
2017-10-13T01:31:55.532Z,0.00
2017-10-13T01:32:55.498Z,0.00
2017-10-13T01:33:55.509Z,0.00
2017-10-13T01:34:55.459Z,0.00
2017-10-13T01:35:55.435Z,0.00
2017-10-13T01:36:55.407Z,0.00
2017-10-13T01:37:55.394Z,0.00
2017-10-13T01:38:55.364Z,0.00
2017-10-13T01:39:55.344Z,0.00
2017-10-13T01:40:55.332Z,0.00
2017-10-13T01:41:55.316Z,0.00
2017-10-13T01:42:55.285Z,0.00
2017-10-13T01:43:55.265Z,0.00
2017-10-13T01:44:55.240Z,0.00
2017-10-13T01:45:55.211Z,0.00
2017-10-13T01:46:55.191Z,0.00
2017-10-13T01:47:55.168Z,0.00
2017-10-13T01:48:55.155Z,0.00
2017-10-13T01:49:55.139Z,0.00
2017-10-13T01:50:55.113Z,0.00
2017-10-13T01:51:55.101Z,0.00
2017-10-13T01:52:55.067Z,0.00
2017-10-13T01:53:55.053Z,0.00
2017-10-13T01:54:55.021Z,0.00
2017-10-13T01:55:55.017Z,0.00
2017-10-13T01:56:54.984Z,0.00
2017-10-13T01:57:54.963Z,0.00
2017-10-13T01:58:54.936Z,0.00
2017-10-13T01:59:54.911Z,0.00
2017-10-13T02:00:54.892Z,0.00
2017-10-13T02:01:54.871Z,0.00
2017-10-13T02:02:54.853Z,0.00
2017-10-13T02:03:54.844Z,0.00
2017-10-13T02:04:54.806Z,0.00
2017-10-13T02:05:54.789Z,0.00
2017-10-13T02:06:54.785Z,0.00
2017-10-13T02:07:54.750Z,0.00
2017-10-13T02:08:54.719Z,0.00
2017-10-13T02:09:54.705Z,0.00
2017-10-13T02:10:54.674Z,0.00
2017-10-13T02:11:54.679Z,0.00
2017-10-13T02:12:54.637Z,0.00
2017-10-13T02:13:54.626Z,0.00
2017-10-13T02:14:54.584Z,0.00
2017-10-13T02:15:54.570Z,0.00
2017-10-13T02:16:54.548Z,0.00
2017-10-13T02:17:54.531Z,0.00
2017-10-13T02:18:54.522Z,0.00
2017-10-13T02:19:54.492Z,0.00
2017-10-13T02:20:54.470Z,0.00
2017-10-13T02:21:54.450Z,0.00
2017-10-13T02:22:54.429Z,0.00
2017-10-13T02:23:54.401Z,0.00
2017-10-13T02:24:54.400Z,0.00
2017-10-13T02:25:54.367Z,0.00
2017-10-13T02:26:54.328Z,0.00
2017-10-13T02:27:54.343Z,0.00
2017-10-13T02:28:54.300Z,0.00
2017-10-13T02:29:54.291Z,0.00
2017-10-13T02:30:54.239Z,0.00
2017-10-13T02:31:54.222Z,0.00
2017-10-13T02:32:54.211Z,0.00
2017-10-13T02:33:54.182Z,0.00
2017-10-13T02:34:54.170Z,0.00
2017-10-13T02:35:54.133Z,0.00
2017-10-13T02:36:54.137Z,0.00
2017-10-13T02:37:54.093Z,0.00
2017-10-13T02:38:54.095Z,0.00
2017-10-13T02:39:54.056Z,0.00
2017-10-13T02:40:54.049Z,0.00
2017-10-13T02:41:54.017Z,0.00
2017-10-13T02:42:53.981Z,0.00
2017-10-13T02:43:53.974Z,0.00
2017-10-13T02:44:53.944Z,0.00
2017-10-13T02:45:53.928Z,0.00
2017-10-13T02:46:53.899Z,0.00
2017-10-13T02:47:53.869Z,0.00
2017-10-13T02:48:53.861Z,0.00
2017-10-13T02:49:53.831Z,0.00
2017-10-13T02:50:53.819Z,0.00
2017-10-13T02:51:53.794Z,0.00
2017-10-13T02:52:53.783Z,0.00
2017-10-13T02:53:53.757Z,0.00
2017-10-13T02:54:53.752Z,0.00
2017-10-13T02:55:53.704Z,0.00
2017-10-13T02:56:53.716Z,0.00
2017-10-13T02:57:53.663Z,0.00
2017-10-13T02:58:53.641Z,0.00
2017-10-13T02:59:53.634Z,0.00
2017-10-13T03:00:53.606Z,0.00
2017-10-13T03:01:53.578Z,0.00
2017-10-13T03:02:53.562Z,0.00
2017-10-13T03:03:53.567Z,0.00
2017-10-13T03:04:53.506Z,0.00
2017-10-13T03:05:53.483Z,0.00
2017-10-13T03:06:53.471Z,0.00
2017-10-13T03:07:53.475Z,0.00
2017-10-13T03:08:53.436Z,0.00
2017-10-13T03:09:53.402Z,0.00
2017-10-13T03:10:53.409Z,0.00
2017-10-13T03:11:53.365Z,0.00
2017-10-13T03:12:53.361Z,0.00
2017-10-13T03:13:53.322Z,0.00
2017-10-13T03:14:53.301Z,0.00
2017-10-13T03:15:53.276Z,0.00
2017-10-13T03:16:53.240Z,0.00
2017-10-13T03:17:53.235Z,0.00
2017-10-13T03:18:53.204Z,0.00
2017-10-13T03:19:53.192Z,0.00
2017-10-13T03:20:53.160Z,0.00
2017-10-13T03:21:53.169Z,0.00
2017-10-13T03:22:53.119Z,0.00
2017-10-13T03:23:53.101Z,0.00
2017-10-13T03:24:53.101Z,0.00
2017-10-13T03:25:53.063Z,0.00
2017-10-13T03:26:53.032Z,0.00
2017-10-13T03:27:53.013Z,0.00
2017-10-13T03:28:53.019Z,0.00
2017-10-13T03:29:52.966Z,0.00
2017-10-13T03:30:52.952Z,0.00
2017-10-13T03:31:52.937Z,0.00
2017-10-13T03:32:52.900Z,0.00
2017-10-13T03:33:52.876Z,0.00
2017-10-13T03:34:52.854Z,0.00
2017-10-13T03:35:52.858Z,0.00
2017-10-13T03:36:52.819Z,0.00
2017-10-13T03:37:52.790Z,0.00
2017-10-13T03:38:52.770Z,0.00
2017-10-13T03:39:52.756Z,0.00
2017-10-13T03:40:52.735Z,0.00
2017-10-13T03:41:52.707Z,0.00
2017-10-13T03:42:52.701Z,0.00
2017-10-13T03:43:52.665Z,0.00
2017-10-13T03:44:52.690Z,0.00
2017-10-13T03:45:52.623Z,0.00
2017-10-13T03:46:52.607Z,0.00
2017-10-13T03:47:52.579Z,0.00
2017-10-13T03:48:52.561Z,0.00
2017-10-13T03:49:52.537Z,0.00
2017-10-13T03:50:52.513Z,0.00
2017-10-13T03:51:52.493Z,0.00
2017-10-13T03:52:52.486Z,0.00
2017-10-13T03:53:52.467Z,0.00
2017-10-13T03:54:52.425Z,0.00
2017-10-13T03:55:52.409Z,0.00
2017-10-13T03:56:54.025Z,0.00
2017-10-13T03:57:52.363Z,0.00
2017-10-13T03:58:52.383Z,0.00
2017-10-13T03:59:52.311Z,0.00
2017-10-13T04:00:52.296Z,0.00
2017-10-13T04:01:52.268Z,0.00
2017-10-13T04:02:52.249Z,0.00
2017-10-13T04:03:52.246Z,0.00
2017-10-13T04:04:52.202Z,0.00
2017-10-13T04:05:52.193Z,0.00
2017-10-13T04:06:52.163Z,0.00
2017-10-13T04:07:52.141Z,0.00
2017-10-13T04:08:52.111Z,0.00
2017-10-13T04:09:52.101Z,0.00
2017-10-13T04:10:52.080Z,0.00
2017-10-13T04:11:52.050Z,0.00
2017-10-13T04:12:52.038Z,0.00
2017-10-13T04:13:52.014Z,0.00
2017-10-13T04:14:51.993Z,0.00
2017-10-13T04:15:51.976Z,0.00
2017-10-13T04:16:51.948Z,0.00
2017-10-13T04:17:51.925Z,0.00
2017-10-13T04:18:51.903Z,0.00
2017-10-13T04:19:51.884Z,0.00
2017-10-13T04:20:51.862Z,0.00
2017-10-13T04:21:51.838Z,0.00
2017-10-13T04:22:51.826Z,0.00
2017-10-13T04:23:51.797Z,0.00
2017-10-13T04:24:51.781Z,0.00
2017-10-13T04:25:51.746Z,0.00
2017-10-13T04:26:51.720Z,0.00
2017-10-13T04:27:51.711Z,0.00
2017-10-13T04:28:51.678Z,0.00
2017-10-13T04:29:51.673Z,0.00
2017-10-13T04:30:51.637Z,0.00
2017-10-13T04:31:51.608Z,0.00
2017-10-13T04:32:51.593Z,0.00
2017-10-13T04:33:51.573Z,0.00
2017-10-13T04:34:51.557Z,0.00
2017-10-13T04:35:51.535Z,0.00
2017-10-13T04:36:51.516Z,0.00
2017-10-13T04:37:51.489Z,0.00
2017-10-13T04:38:51.461Z,0.00
2017-10-13T04:39:51.442Z,0.00
2017-10-13T04:40:51.425Z,0.00
2017-10-13T04:41:51.402Z,0.00
2017-10-13T04:42:51.373Z,0.00
2017-10-13T04:43:51.361Z,0.00
2017-10-13T04:44:51.340Z,0.00
2017-10-13T04:45:51.321Z,0.00
2017-10-13T04:46:51.295Z,0.00
2017-10-13T04:47:51.283Z,0.00
2017-10-13T04:48:51.244Z,0.00
2017-10-13T04:49:51.239Z,0.00
2017-10-13T04:50:51.204Z,0.00
2017-10-13T04:51:51.189Z,0.00
2017-10-13T04:52:51.165Z,0.00
2017-10-13T04:53:51.164Z,0.00
2017-10-13T04:54:51.127Z,0.00
2017-10-13T04:55:51.118Z,0.00
2017-10-13T04:56:51.081Z,0.00
2017-10-13T04:57:51.060Z,0.00
2017-10-13T04:58:51.032Z,0.00
2017-10-13T04:59:51.016Z,0.00
2017-10-13T05:00:50.993Z,0.00
2017-10-13T05:01:50.979Z,0.00
2017-10-13T05:02:50.976Z,0.00
2017-10-13T05:03:50.960Z,0.00
2017-10-13T05:04:50.907Z,0.00
2017-10-13T05:05:50.896Z,0.00
2017-10-13T05:06:50.863Z,0.00
2017-10-13T05:07:50.883Z,0.00
2017-10-13T05:08:50.835Z,0.00
2017-10-13T05:09:50.806Z,0.00
2017-10-13T05:10:50.956Z,0.00
2017-10-13T05:11:50.810Z,0.00
2017-10-13T05:12:50.745Z,0.00
2017-10-13T05:13:50.719Z,0.00
2017-10-13T05:14:50.715Z,0.00
2017-10-13T05:15:50.707Z,0.00
2017-10-13T05:16:50.671Z,0.00
2017-10-13T05:17:50.635Z,4.00
2017-10-13T05:18:50.643Z,0.00
2017-10-13T05:19:50.605Z,0.00
2017-10-13T05:20:50.576Z,4.00
2017-10-13T05:21:50.552Z,4.00
2017-10-13T05:22:50.563Z,4.00
2017-10-13T05:23:50.528Z,4.00
2017-10-13T05:24:50.489Z,4.00
2017-10-13T05:25:50.490Z,8.00
2017-10-13T05:26:50.512Z,12.00
2017-10-13T05:27:50.447Z,12.00
2017-10-13T05:28:50.411Z,8.00
2017-10-13T05:29:50.404Z,12.00
2017-10-13T05:30:50.367Z,16.00
2017-10-13T05:31:51.146Z,16.00
2017-10-13T05:32:50.359Z,20.00
2017-10-13T05:33:50.326Z,24.00
2017-10-13T05:34:50.280Z,28.00
2017-10-13T05:35:50.255Z,32.00
2017-10-13T05:36:50.243Z,40.00
2017-10-13T05:37:50.225Z,44.00
2017-10-13T05:38:50.200Z,52.00
2017-10-13T05:39:50.200Z,64.00
2017-10-13T05:40:50.164Z,72.00
2017-10-13T05:41:50.142Z,76.00
2017-10-13T05:42:50.106Z,84.00
2017-10-13T05:43:50.087Z,88.00
2017-10-13T05:44:50.069Z,96.00
2017-10-13T05:45:50.059Z,124.00
2017-10-13T05:46:50.028Z,124.00
2017-10-13T05:47:50.022Z,144.00
2017-10-13T05:48:49.991Z,152.00
2017-10-13T05:49:49.966Z,172.00
2017-10-13T05:50:49.957Z,228.00
2017-10-13T05:51:49.924Z,260.00
2017-10-13T05:52:49.894Z,268.00
2017-10-13T05:53:49.884Z,328.00
2017-10-13T05:54:49.862Z,356.00
2017-10-13T05:55:49.837Z,364.00
2017-10-13T05:56:49.829Z,412.00
2017-10-13T05:57:49.802Z,448.00
2017-10-13T05:58:49.810Z,488.00
2017-10-13T05:59:49.770Z,488.00
2017-10-13T06:00:49.756Z,504.00
2017-10-13T06:01:49.712Z,612.00
2017-10-13T06:02:49.691Z,704.00
2017-10-13T06:03:49.672Z,748.00
2017-10-13T06:04:49.653Z,800.00
2017-10-13T06:05:49.634Z,844.00
2017-10-13T06:06:49.611Z,852.00
2017-10-13T06:07:49.595Z,852.00
2017-10-13T06:08:49.583Z,924.00
2017-10-13T06:09:49.542Z,904.00
2017-10-13T06:10:49.521Z,960.00
2017-10-13T06:11:49.502Z,1144.00
2017-10-13T06:12:49.493Z,1288.00
2017-10-13T06:13:49.466Z,1196.00
2017-10-13T06:14:49.451Z,1140.00
2017-10-13T06:15:49.440Z,1232.00
2017-10-13T06:16:49.407Z,1456.00
2017-10-13T06:17:49.375Z,1420.00
2017-10-13T06:18:49.365Z,1436.00
2017-10-13T06:19:49.339Z,1480.00
2017-10-13T06:20:49.320Z,1528.00
2017-10-13T06:21:49.287Z,1492.00
2017-10-13T06:22:49.274Z,1404.00
2017-10-13T06:23:49.304Z,1464.00
2017-10-13T06:24:49.240Z,1548.00
2017-10-13T06:25:49.210Z,1456.00
2017-10-13T06:26:49.194Z,1568.00
2017-10-13T06:27:49.175Z,1824.00
2017-10-13T06:28:49.161Z,1992.00
2017-10-13T06:29:49.129Z,2200.00
2017-10-13T06:30:49.143Z,2392.00
2017-10-13T06:31:49.085Z,2448.00
2017-10-13T06:32:49.067Z,2460.00
2017-10-13T06:33:49.058Z,2544.00
2017-10-13T06:34:49.031Z,2508.00
2017-10-13T06:35:49.024Z,2384.00
2017-10-13T06:36:48.985Z,1920.00
2017-10-13T06:37:48.968Z,1472.00
2017-10-13T06:38:48.949Z,1372.00
2017-10-13T06:39:48.933Z,1352.00
2017-10-13T06:40:48.911Z,1364.00
2017-10-13T06:41:48.881Z,1804.00
2017-10-13T06:42:48.861Z,1776.00
2017-10-13T06:43:48.846Z,1552.00
2017-10-13T06:44:48.827Z,1364.00
2017-10-13T06:45:48.797Z,1448.00
2017-10-13T06:46:48.779Z,1328.00
2017-10-13T06:47:48.752Z,1316.00
2017-10-13T06:48:48.774Z,1328.00
2017-10-13T06:49:48.731Z,1228.00
2017-10-13T06:50:48.699Z,1280.00
2017-10-13T06:51:48.729Z,1392.00
2017-10-13T06:52:48.666Z,1272.00
2017-10-13T06:53:48.638Z,1152.00
2017-10-13T06:54:48.612Z,1128.00
2017-10-13T06:55:48.628Z,1328.00
2017-10-13T06:56:48.567Z,1836.00
2017-10-13T06:57:48.547Z,2400.00
2017-10-13T06:58:48.537Z,3120.00
2017-10-13T06:59:48.527Z,3800.00
2017-10-13T07:00:48.490Z,4276.00
2017-10-13T07:01:48.473Z,4220.00
2017-10-13T07:02:48.448Z,4444.00
2017-10-13T07:03:48.438Z,4812.00
2017-10-13T07:04:48.482Z,4520.00
2017-10-13T07:05:49.187Z,4868.00
2017-10-13T07:06:48.477Z,5328.00
2017-10-13T07:07:48.434Z,5456.00
2017-10-13T07:08:48.321Z,5220.00
2017-10-13T07:09:48.355Z,5404.00
2017-10-13T07:10:48.293Z,5784.00
2017-10-13T07:11:48.273Z,6136.00
2017-10-13T07:12:48.279Z,6108.00
2017-10-13T07:13:48.239Z,4648.00
2017-10-13T07:14:48.238Z,3436.00
2017-10-13T07:15:48.195Z,2924.00
2017-10-13T07:16:48.167Z,2704.00
2017-10-13T07:17:48.155Z,2840.00
2017-10-13T07:18:48.123Z,3068.00
2017-10-13T07:19:48.105Z,3004.00
2017-10-13T07:20:48.082Z,3416.00
2017-10-13T07:21:48.064Z,4724.00
2017-10-13T07:22:48.049Z,5536.00
2017-10-13T07:23:48.049Z,5660.00
2017-10-13T07:24:48.006Z,6508.00
2017-10-13T07:25:48.022Z,5560.00
2017-10-13T07:26:47.963Z,5808.00
2017-10-13T07:27:47.945Z,5496.00
2017-10-13T07:28:47.927Z,5544.00
2017-10-13T07:29:47.911Z,5880.00
2017-10-13T07:30:47.902Z,5968.00
2017-10-13T07:31:47.878Z,5496.00
2017-10-13T07:32:47.853Z,3528.00
2017-10-13T07:33:47.835Z,5276.00
2017-10-13T07:34:47.807Z,4900.00
2017-10-13T07:35:48.954Z,3892.00
2017-10-13T07:36:47.780Z,3360.00
2017-10-13T07:37:47.762Z,3964.00
2017-10-13T07:38:47.736Z,4452.00
2017-10-13T07:39:47.714Z,3604.00
2017-10-13T07:40:47.702Z,2764.00
2017-10-13T07:41:47.678Z,2368.00
2017-10-13T07:42:47.684Z,2580.00
2017-10-13T07:43:47.636Z,2768.00
2017-10-13T07:44:47.660Z,2672.00
2017-10-13T07:45:47.641Z,2256.00
2017-10-13T07:46:47.578Z,2348.00
2017-10-13T07:47:47.575Z,2632.00
2017-10-13T07:48:47.538Z,2968.00
2017-10-13T07:49:47.521Z,3176.00
2017-10-13T07:50:47.512Z,2968.00
2017-10-13T07:51:47.485Z,2744.00
2017-10-13T07:52:47.500Z,2796.00
2017-10-13T07:53:47.445Z,3228.00
2017-10-13T07:54:47.441Z,3772.00
2017-10-13T07:55:47.414Z,6704.00
2017-10-13T07:56:47.482Z,6996.00
2017-10-13T07:57:47.369Z,4924.00
2017-10-13T07:58:47.730Z,3996.00
2017-10-13T07:59:47.371Z,3988.00
2017-10-13T08:00:47.309Z,4088.00
2017-10-13T08:01:47.289Z,3548.00
2017-10-13T08:02:47.325Z,3500.00
2017-10-13T08:03:47.370Z,3680.00
2017-10-13T08:04:47.475Z,3404.00
2017-10-13T08:05:47.248Z,3368.00
2017-10-13T08:06:47.197Z,3580.00
2017-10-13T08:07:47.200Z,3696.00
2017-10-13T08:08:47.164Z,3516.00
2017-10-13T08:09:47.549Z,3468.00
2017-10-13T08:10:47.169Z,3900.00
2017-10-13T08:11:47.151Z,5304.00
2017-10-13T08:12:47.085Z,6872.00
2017-10-13T08:13:47.762Z,7836.00
2017-10-13T08:14:47.047Z,7968.00
2017-10-13T08:15:47.029Z,8416.00
2017-10-13T08:16:47.019Z,9440.00
2017-10-13T08:17:46.998Z,8904.00
2017-10-13T08:18:46.969Z,9084.00
2017-10-13T08:19:46.952Z,9480.00
2017-10-13T08:20:46.936Z,7784.00
2017-10-13T08:21:46.919Z,7332.00
2017-10-13T08:22:46.894Z,6444.00
2017-10-13T08:23:46.874Z,5168.00
2017-10-13T08:24:46.901Z,5472.00
2017-10-13T08:25:46.838Z,4592.00
2017-10-13T08:26:46.828Z,4224.00
2017-10-13T08:27:46.812Z,4812.00
2017-10-13T08:28:46.794Z,5352.00
2017-10-13T08:29:46.797Z,5536.00
2017-10-13T08:30:46.754Z,6416.00
2017-10-13T08:31:46.745Z,5852.00
2017-10-13T08:32:46.720Z,5036.00
2017-10-13T08:33:46.709Z,4304.00
2017-10-13T08:34:46.680Z,4532.00
2017-10-13T08:35:46.670Z,5144.00
2017-10-13T08:36:46.648Z,6956.00
2017-10-13T08:37:46.629Z,8416.00
2017-10-13T08:38:46.618Z,6708.00
2017-10-13T08:39:46.587Z,4732.00
2017-10-13T08:40:46.575Z,3896.00
2017-10-13T08:41:46.543Z,3620.00
2017-10-13T08:42:46.542Z,3688.00
2017-10-13T08:43:46.521Z,3724.00
2017-10-13T08:44:46.524Z,4056.00
2017-10-13T08:45:46.507Z,4580.00
2017-10-13T08:46:46.471Z,4732.00
2017-10-13T08:47:46.447Z,5524.00
2017-10-13T08:48:46.435Z,6152.00
2017-10-13T08:49:46.417Z,6664.00
2017-10-13T08:50:46.403Z,7248.00
2017-10-13T08:51:46.378Z,5544.00
2017-10-13T08:52:46.354Z,4676.00
2017-10-13T08:53:46.345Z,4684.00
2017-10-13T08:54:46.330Z,5060.00
2017-10-13T08:55:46.304Z,6688.00
2017-10-13T08:56:46.284Z,9312.00
2017-10-13T08:57:46.267Z,18496.00
2017-10-13T08:58:46.278Z,10236.00
2017-10-13T08:59:46.270Z,8244.00
2017-10-13T09:00:47.327Z,7548.00
2017-10-13T09:01:46.196Z,6476.00
2017-10-13T09:02:46.202Z,6136.00
2017-10-13T09:03:46.164Z,6876.00
2017-10-13T09:04:46.144Z,8232.00
2017-10-13T09:05:46.183Z,13000.00
2017-10-13T09:06:46.134Z,11216.00
2017-10-13T09:07:46.093Z,8292.00
2017-10-13T09:08:46.080Z,4960.00
2017-10-13T09:09:46.067Z,4420.00
2017-10-13T09:10:46.057Z,3664.00
2017-10-13T09:11:46.041Z,3828.00
2017-10-13T09:12:46.038Z,3748.00
2017-10-13T09:13:46.052Z,3288.00
2017-10-13T09:14:46.006Z,4632.00
2017-10-13T09:15:45.986Z,3872.00
2017-10-13T09:16:45.943Z,2540.00
2017-10-13T09:17:45.936Z,3424.00
2017-10-13T09:18:45.986Z,3964.00
2017-10-13T09:19:45.927Z,5512.00
2017-10-13T09:20:45.915Z,6544.00
2017-10-13T09:21:45.874Z,6420.00
2017-10-13T09:22:45.865Z,5756.00
2017-10-13T09:23:45.848Z,5312.00
2017-10-13T09:24:45.813Z,4076.00
2017-10-13T09:25:45.782Z,3352.00
2017-10-13T09:26:45.794Z,3300.00
2017-10-13T09:27:45.766Z,3344.00
2017-10-13T09:28:45.752Z,2480.00
2017-10-13T09:29:45.720Z,2064.00
2017-10-13T09:30:45.696Z,2028.00
2017-10-13T09:31:45.694Z,2048.00
2017-10-13T09:32:45.686Z,2488.00
2017-10-13T09:33:45.663Z,3112.00
2017-10-13T09:34:45.637Z,4400.00
2017-10-13T09:35:45.622Z,4576.00
2017-10-13T09:36:45.600Z,5436.00
2017-10-13T09:37:45.592Z,4836.00
2017-10-13T09:38:45.573Z,4336.00
2017-10-13T09:39:45.546Z,4072.00
2017-10-13T09:40:45.536Z,3652.00
2017-10-13T09:41:45.506Z,3940.00
2017-10-13T09:42:45.508Z,5300.00
2017-10-13T09:43:45.477Z,8236.00
2017-10-13T09:44:45.478Z,9364.00
2017-10-13T09:45:45.438Z,12012.00
2017-10-13T09:46:45.424Z,9428.00
2017-10-13T09:47:45.438Z,6116.00
2017-10-13T09:48:45.410Z,5292.00
2017-10-13T09:49:45.410Z,4840.00
2017-10-13T09:50:45.365Z,4340.00
2017-10-13T09:51:45.338Z,3400.00
2017-10-13T09:52:45.333Z,3040.00
2017-10-13T09:53:45.335Z,2756.00
2017-10-13T09:54:45.294Z,2332.00
2017-10-13T09:55:45.292Z,2304.00
2017-10-13T09:56:45.274Z,2488.00
2017-10-13T09:57:45.262Z,2264.00
2017-10-13T09:58:45.236Z,1944.00
2017-10-13T09:59:45.217Z,1856.00
2017-10-13T10:00:45.197Z,1724.00
2017-10-13T10:01:45.180Z,1748.00
2017-10-13T10:02:45.152Z,1720.00
2017-10-13T10:03:45.150Z,1776.00
2017-10-13T10:04:45.133Z,2072.00
2017-10-13T10:05:45.138Z,2816.00
2017-10-13T10:06:45.104Z,4144.00
2017-10-13T10:07:45.076Z,5812.00
2017-10-13T10:08:45.044Z,6904.00
2017-10-13T10:09:45.051Z,5892.00
2017-10-13T10:10:45.045Z,8148.00
2017-10-13T10:11:45.011Z,12744.00
2017-10-13T10:12:44.993Z,19680.00
2017-10-13T10:13:44.957Z,8916.00
2017-10-13T10:14:44.951Z,12900.00
2017-10-13T10:15:44.931Z,38368.00
2017-10-13T10:16:44.917Z,36864.00
2017-10-13T10:17:44.907Z,20032.00
2017-10-13T10:18:44.894Z,17024.00
2017-10-13T10:19:44.862Z,18528.00
2017-10-13T10:20:44.866Z,18816.00
2017-10-13T10:21:44.857Z,36032.00
2017-10-13T10:22:44.814Z,30624.00
2017-10-13T10:23:44.794Z,14720.00
2017-10-13T10:24:44.795Z,11780.00
2017-10-13T10:25:44.803Z,13180.00
2017-10-13T10:26:44.739Z,11188.00
2017-10-13T10:27:44.764Z,9588.00
2017-10-13T10:28:44.716Z,9176.00
2017-10-13T10:29:44.708Z,8456.00
2017-10-13T10:30:44.733Z,5560.00
2017-10-13T10:31:44.669Z,3612.00
2017-10-13T10:32:44.665Z,3712.00
2017-10-13T10:33:44.656Z,5452.00
2017-10-13T10:34:44.628Z,9388.00
2017-10-13T10:35:44.612Z,7368.00
2017-10-13T10:36:44.603Z,16576.00
2017-10-13T10:37:44.589Z,38944.00
2017-10-13T10:38:44.574Z,16256.00
2017-10-13T10:39:44.598Z,17120.00
2017-10-13T10:40:44.558Z,9872.00
2017-10-13T10:41:44.532Z,9796.00
2017-10-13T10:42:44.509Z,9800.00
2017-10-13T10:43:44.496Z,6756.00
2017-10-13T10:44:44.492Z,5724.00
2017-10-13T10:45:44.497Z,6892.00
2017-10-13T10:46:44.509Z,7572.00
2017-10-13T10:47:44.474Z,5872.00
2017-10-13T10:48:44.437Z,4624.00
2017-10-13T10:49:44.410Z,4584.00
2017-10-13T10:50:44.404Z,4032.00
2017-10-13T10:51:44.391Z,3172.00
2017-10-13T10:52:44.378Z,3032.00
2017-10-13T10:53:44.364Z,2752.00
2017-10-13T10:54:44.353Z,2676.00
2017-10-13T10:55:44.323Z,2816.00
2017-10-13T10:56:44.323Z,2464.00
2017-10-13T10:57:44.324Z,2200.00
2017-10-13T10:58:44.313Z,2472.00
2017-10-13T10:59:44.261Z,3480.00
2017-10-13T11:00:44.255Z,5040.00
2017-10-13T11:01:44.228Z,5988.00
2017-10-13T11:02:44.224Z,9076.00
2017-10-13T11:03:44.198Z,8456.00
2017-10-13T11:04:44.180Z,5996.00
2017-10-13T11:05:44.162Z,4696.00
2017-10-13T11:06:44.160Z,5056.00
2017-10-13T11:07:44.130Z,5988.00
2017-10-13T11:08:44.137Z,6056.00
2017-10-13T11:09:44.108Z,5864.00
2017-10-13T11:10:44.081Z,5144.00
2017-10-13T11:11:44.071Z,6516.00
2017-10-13T11:12:44.047Z,6948.00
2017-10-13T11:13:44.033Z,5884.00
2017-10-13T11:14:44.020Z,4616.00
2017-10-13T11:15:44.006Z,3716.00
2017-10-13T11:16:44.000Z,4548.00
2017-10-13T11:17:43.970Z,5164.00
2017-10-13T11:18:43.955Z,4520.00
2017-10-13T11:19:43.938Z,3932.00
2017-10-13T11:20:43.927Z,4616.00
2017-10-13T11:21:43.925Z,7144.00
2017-10-13T11:22:43.899Z,8648.00
2017-10-13T11:23:43.875Z,8680.00
2017-10-13T11:24:43.871Z,18016.00
2017-10-13T11:25:43.830Z,8180.00
2017-10-13T11:26:43.815Z,6220.00
2017-10-13T11:27:43.805Z,5440.00
2017-10-13T11:28:43.811Z,4812.00
2017-10-13T11:29:43.774Z,4084.00
2017-10-13T11:30:43.760Z,4432.00
2017-10-13T11:31:43.732Z,4076.00
2017-10-13T11:32:43.721Z,3916.00
2017-10-13T11:33:43.715Z,4412.00
2017-10-13T11:34:43.693Z,6036.00
2017-10-13T11:35:43.677Z,5936.00
2017-10-13T11:36:43.682Z,5288.00
2017-10-13T11:37:43.647Z,3532.00
2017-10-13T11:38:43.623Z,3648.00
2017-10-13T11:39:43.617Z,3368.00
2017-10-13T11:40:43.604Z,3224.00
2017-10-13T11:41:43.573Z,3296.00
2017-10-13T11:42:43.557Z,3548.00
2017-10-13T11:43:43.555Z,3692.00
2017-10-13T11:44:43.529Z,3336.00
2017-10-13T11:45:43.502Z,3104.00
2017-10-13T11:46:43.494Z,2792.00
2017-10-13T11:47:43.471Z,2584.00
2017-10-13T11:48:43.460Z,2928.00
2017-10-13T11:49:43.440Z,3872.00
2017-10-13T11:50:43.431Z,4992.00
2017-10-13T11:51:43.409Z,4720.00
2017-10-13T11:52:43.405Z,3624.00
2017-10-13T11:53:43.381Z,3020.00
2017-10-13T11:54:43.359Z,3296.00
2017-10-13T11:55:43.362Z,4140.00
2017-10-13T11:56:43.332Z,4412.00
2017-10-13T11:57:43.309Z,4780.00
2017-10-13T11:58:43.298Z,5032.00
2017-10-13T11:59:43.283Z,5580.00
2017-10-13T12:00:43.261Z,5176.00
2017-10-13T12:01:43.269Z,4348.00
2017-10-13T12:02:43.233Z,3632.00
2017-10-13T12:03:43.214Z,3620.00
2017-10-13T12:04:43.196Z,4100.00
2017-10-13T12:05:43.195Z,4792.00
2017-10-13T12:06:43.173Z,5800.00
2017-10-13T12:07:43.139Z,8248.00
2017-10-13T12:08:43.142Z,8276.00
2017-10-13T12:09:43.137Z,7476.00
2017-10-13T12:10:43.136Z,8212.00
2017-10-13T12:11:43.092Z,9968.00
2017-10-13T12:12:43.068Z,9044.00
2017-10-13T12:13:43.061Z,10296.00
2017-10-13T12:14:43.028Z,11060.00
2017-10-13T12:15:43.027Z,10244.00
2017-10-13T12:16:43.003Z,10108.00
2017-10-13T12:17:42.986Z,10468.00
2017-10-13T12:18:42.992Z,10392.00
2017-10-13T12:19:42.973Z,10388.00
2017-10-13T12:20:42.945Z,9168.00
2017-10-13T12:21:42.919Z,7780.00
2017-10-13T12:22:42.910Z,6812.00
2017-10-13T12:23:42.894Z,6072.00
2017-10-13T12:24:42.865Z,5388.00
2017-10-13T12:25:42.859Z,5424.00
2017-10-13T12:26:42.839Z,5576.00
2017-10-13T12:27:42.839Z,5696.00
2017-10-13T12:28:42.817Z,6136.00
2017-10-13T12:29:42.796Z,6908.00
2017-10-13T12:30:42.771Z,7288.00
2017-10-13T12:31:42.772Z,7992.00
2017-10-13T12:32:42.755Z,8272.00
2017-10-13T12:33:42.739Z,8072.00
2017-10-13T12:34:42.719Z,8504.00
2017-10-13T12:35:42.712Z,9280.00
2017-10-13T12:36:42.690Z,8836.00